Welcome to Des Moines Iowa Weather. I am an independent private personal weather station on the Northwest Side of Des Moines, Iowa. Just East of Windsor Heights and just West of Glendale . This site is also mobile friendly.

There are no active watches, warnings or advisories


Visit our other weather sites:

Historical Data

Weather Station Setup



Weather Underground History page Text

Daily Summary for March 6, 2018 Units:  Metric    English   Both
« Previous Day
Next Day »
Daily Weekly Monthly Yearly Custom
  High: Low: Average:
Temperature: 0.8 °C -2.9 °C -0.9 °C
Dew Point: -1.1 °C -4.6 °C -2.9 °C
Humidity: 91 % 83 % 87 %
Wind Speed: 25.7 km/h 0 km/h 6.1 km/h
Wind Gust: 37 km/h - -
Wind:- - WSW
Pressure: 1020.9 hPa 1000.2 hPa -
Precipitation: 0 mm    
Historical Graphs
 
 
Tabular Data for March 6, 2018
Time Temperature Dew Point Pressure Wind Wind Speed Wind Gust Humidity Rainfall Rate (Hourly)
00:00 -0.3 °C -2.8 °C 1006 hPa SW 1.6 km/h 6.4 km/h 85 % 0 mm
00:05 -0.3 °C -2.7 °C 1005 hPa Calm   6.4 km/h 84 % 0 mm
00:10 -0.3 °C -2.7 °C 1005 hPa Calm   6.4 km/h 84 % 0 mm
00:15 -0.3 °C -2.2 °C 1005.6 hPa Calm   3.2 km/h 85 % 0 mm
00:20 -0.3 °C -2.6 °C 1005 hPa Calm   4.8 km/h 85 % 0 mm
00:25 -0.3 °C -2.5 °C 1005 hPa Calm   6.4 km/h 85 % 0 mm
00:30 -0.2 °C -2.8 °C 1005.6 hPa SSW 1.6 km/h 6.4 km/h 84 % 0 mm
00:35 -0.3 °C -2.5 °C 1005 hPa Calm   6.4 km/h 85 % 0 mm
00:40 -0.2 °C -2.6 °C 1004.6 hPa West 1.6 km/h 11.3 km/h 84 % 0 mm
00:45 -0.2 °C -2.8 °C 1005.6 hPa Calm   3.2 km/h 84 % 0 mm
00:50 -0.2 °C -2.6 °C 1004.6 hPa West 1.6 km/h 11.3 km/h 84 % 0 mm
00:55 -0.2 °C -2.6 °C 1004.6 hPa Calm   4.8 km/h 84 % 0 mm
01:00 -0.2 °C -2.8 °C 1005.3 hPa Calm   3.2 km/h 84 % 0 mm
01:05 -0.2 °C -2.6 °C 1004.6 hPa Calm   4.8 km/h 84 % 0 mm
01:10 -0.2 °C -2.6 °C 1004.6 hPa Calm   4.8 km/h 84 % 0 mm
01:15 -0.1 °C -2.2 °C 1005.3 hPa West 3.2 km/h 12.9 km/h 86 % 0 mm
01:20 -0.2 °C -2.4 °C 1004.3 hPa Calm   3.2 km/h 85 % 0 mm
01:25 -0.2 °C -2.4 °C 1004.3 hPa Calm   3.2 km/h 85 % 0 mm
01:30 -0.3 °C -2.2 °C 1005 hPa WNW 3.2 km/h 11.3 km/h 86 % 0 mm
01:35 -0.1 °C -2.2 °C 1004.3 hPa SW 1.6 km/h 14.5 km/h 86 % 0 mm
01:40 -0.1 °C -2.2 °C 1004.3 hPa SW 1.6 km/h 14.5 km/h 86 % 0 mm
01:45 -0.9 °C -2.8 °C 1005.3 hPa WSW 3.2 km/h 9.7 km/h 86 % 0 mm
01:50 -0.4 °C -2.5 °C 1004.3 hPa WNW 3.2 km/h 14.5 km/h 86 % 0 mm
01:55 -1 °C -3.1 °C 1004.3 hPa NW 3.2 km/h 16.1 km/h 86 % 0 mm
02:00 -1.3 °C -3.3 °C 1004.6 hPa Calm   6.4 km/h 87 % 0 mm
02:05 -1 °C -3.1 °C 1004.3 hPa NW 3.2 km/h 16.1 km/h 86 % 0 mm
02:10 -1.3 °C -3.2 °C 1003.6 hPa West 1.6 km/h 11.3 km/h 87 % 0 mm
02:15 -1.4 °C -3.3 °C 1004.6 hPa WSW 1.6 km/h 3.2 km/h 88 % 0 mm
02:20 -1.3 °C -3.2 °C 1003.6 hPa West 1.6 km/h 11.3 km/h 87 % 0 mm
02:25 -1.4 °C -3.2 °C 1003.6 hPa WSW 1.6 km/h 6.4 km/h 88 % 0 mm
02:30 -1.6 °C -3.3 °C 1004.3 hPa West 3.2 km/h 6.4 km/h 88 % 0 mm
02:35 -1.4 °C -3.2 °C 1003.6 hPa WSW 1.6 km/h 6.4 km/h 88 % 0 mm
02:40 -1.4 °C -3.2 °C 1003.6 hPa WSW 1.6 km/h 6.4 km/h 88 % 0 mm
02:45 -1.6 °C -3.3 °C 1003.3 hPa West 1.6 km/h 11.3 km/h 88 % 0 mm
02:46 -1.6 °C -3.9 °C 1003.9 hPa WNW 12.9 km/h 12.9 km/h 86 % 0 mm
02:50 -1.6 °C -3.3 °C 1003.3 hPa West 1.6 km/h 11.3 km/h 88 % 0 mm
02:55 -1.6 °C -3.3 °C 1003.3 hPa West 1.6 km/h 11.3 km/h 88 % 0 mm
03:00 -1.6 °C -3.9 °C 1003.6 hPa SSE 1.6 km/h 4.8 km/h 85 % 0 mm
03:05 -1.6 °C -3.6 °C 1002.9 hPa West 3.2 km/h 16.1 km/h 86 % 0 mm
03:10 -1.6 °C -3.6 °C 1002.9 hPa West 3.2 km/h 16.1 km/h 86 % 0 mm
03:15 -1.6 °C -3.9 °C 1003.3 hPa South 4.8 km/h 8 km/h 86 % 0 mm
03:20 -1.6 °C -3.8 °C 1002.6 hPa Calm   6.4 km/h 85 % 0 mm
03:25 -1.6 °C -3.8 °C 1002.6 hPa Calm   6.4 km/h 85 % 0 mm
03:30 -1.6 °C -3.6 °C 1002.3 hPa Calm   6.4 km/h 86 % 0 mm
03:33 -1.7 °C -3.3 °C 1002.9 hPa SW 3.2 km/h 9.7 km/h 87 % 0 mm
03:35 -1.6 °C -3.6 °C 1002.3 hPa Calm   6.4 km/h 86 % 0 mm
03:40 -1.8 °C -3.7 °C 1002.3 hPa West 1.6 km/h 17.7 km/h 87 % 0 mm
03:45 -2 °C -3.9 °C 1002.9 hPa SW 1.6 km/h 12.9 km/h 88 % 0 mm
03:50 -1.8 °C -3.7 °C 1002.3 hPa West 1.6 km/h 17.7 km/h 87 % 0 mm
03:55 -2.1 °C -3.8 °C 1001.9 hPa West 1.6 km/h 16.1 km/h 88 % 0 mm
04:00 -2.1 °C -3.8 °C 1001.9 hPa West 1.6 km/h 16.1 km/h 88 % 0 mm
04:01 -2.4 °C -4.4 °C 1002.9 hPa Calm   8 km/h 87 % 0 mm
04:05 -2.1 °C -3.8 °C 1001.9 hPa West 1.6 km/h 16.1 km/h 88 % 0 mm
04:10 -2.4 °C -4.2 °C 1001.9 hPa West 3.2 km/h 19.3 km/h 87 % 0 mm
04:15 -2.4 °C -4.2 °C 1001.9 hPa West 3.2 km/h 19.3 km/h 87 % 0 mm
04:16 -2.5 °C -4.4 °C 1002.6 hPa Calm   12.9 km/h 88 % 0 mm
04:20 -2.4 °C -4.2 °C 1001.9 hPa West 3.2 km/h 19.3 km/h 87 % 0 mm
04:25 -2.4 °C -4.2 °C 1001.9 hPa West 3.2 km/h 19.3 km/h 87 % 0 mm
04:30 -2.5 °C -4.2 °C 1001.6 hPa Calm   11.3 km/h 88 % 0 mm
04:31 -2.6 °C -4.4 °C 1002.3 hPa Calm   3.2 km/h 88 % 0 mm
04:35 -2.5 °C -4.2 °C 1001.6 hPa Calm   11.3 km/h 88 % 0 mm
04:40 -2.5 °C -4.2 °C 1001.6 hPa Calm   11.3 km/h 88 % 0 mm
04:45 -2.6 °C -4.3 °C 1001.2 hPa Calm   8 km/h 88 % 0 mm
04:46 -2.6 °C -3.9 °C 1001.9 hPa Calm   16.1 km/h 89 % 0 mm
04:50 -2.6 °C -4.3 °C 1001.2 hPa Calm   8 km/h 88 % 0 mm
04:55 -2.6 °C -4.3 °C 1001.2 hPa Calm   8 km/h 88 % 0 mm
05:00 -2.6 °C -4.1 °C 1001.2 hPa SSW 1.6 km/h 17.7 km/h 89 % 0 mm
05:01 -2.6 °C -3.9 °C 1001.9 hPa Calm   4.8 km/h 89 % 0 mm
05:05 -2.6 °C -4.1 °C 1001.2 hPa SSW 1.6 km/h 17.7 km/h 89 % 0 mm
05:10 -2.6 °C -4.1 °C 1001.2 hPa WSW 1.6 km/h 11.3 km/h 89 % 0 mm
05:15 -2.6 °C -4.1 °C 1001.2 hPa WSW 1.6 km/h 11.3 km/h 89 % 0 mm
05:16 -2.6 °C -3.9 °C 1001.9 hPa Calm   4.8 km/h 89 % 0 mm
05:20 -2.6 °C -4.1 °C 1001.2 hPa WSW 1.6 km/h 11.3 km/h 89 % 0 mm
05:25 -2.6 °C -4.1 °C 1001.2 hPa Calm   9.7 km/h 89 % 0 mm
05:30 -2.6 °C -4.1 °C 1001.2 hPa Calm   9.7 km/h 89 % 0 mm
05:31 -2.7 °C -4.4 °C 1001.9 hPa WSW 6.4 km/h 6.4 km/h 89 % 0 mm
05:35 -2.6 °C -4.1 °C 1001.2 hPa Calm   9.7 km/h 89 % 0 mm
05:40 -2.8 °C -4.3 °C 1001.2 hPa SW 1.6 km/h 11.3 km/h 89 % 0 mm
05:45 -2.8 °C -4.3 °C 1001.2 hPa SW 1.6 km/h 11.3 km/h 89 % 0 mm
05:46 -2.8 °C -4.4 °C 1001.9 hPa SSE 1.6 km/h 9.7 km/h 89 % 0 mm
05:50 -2.8 °C -4.3 °C 1001.2 hPa SW 1.6 km/h 11.3 km/h 89 % 0 mm
05:55 -2.8 °C -4.4 °C 1000.9 hPa SW 1.6 km/h 12.9 km/h 89 % 0 mm
06:00 -2.8 °C -4.4 °C 1000.9 hPa SW 1.6 km/h 12.9 km/h 89 % 0 mm
06:01 -2.8 °C -4.4 °C 1001.6 hPa SW 1.6 km/h 9.7 km/h 90 % 0 mm
06:05 -2.8 °C -4.4 °C 1000.9 hPa SW 1.6 km/h 12.9 km/h 89 % 0 mm
06:10 -2.8 °C -4.4 °C 1000.9 hPa SW 1.6 km/h 12.9 km/h 89 % 0 mm
06:15 -2.8 °C -4.2 °C 1000.9 hPa SW 1.6 km/h 8 km/h 90 % 0 mm
06:16 -2.9 °C -4.4 °C 1001.6 hPa WSW 4.8 km/h 9.7 km/h 90 % 0 mm
06:20 -2.8 °C -4.2 °C 1000.9 hPa SW 1.6 km/h 8 km/h 90 % 0 mm
06:25 -2.8 °C -4.2 °C 1000.9 hPa SW 1.6 km/h 8 km/h 90 % 0 mm
06:30 -2.9 °C -4.3 °C 1000.9 hPa SW 1.6 km/h 17.7 km/h 90 % 0 mm
06:31 -2.9 °C -4.4 °C 1001.6 hPa Calm   9.7 km/h 89 % 0 mm
06:35 -2.9 °C -4.3 °C 1000.9 hPa SW 1.6 km/h 17.7 km/h 90 % 0 mm
06:40 -2.9 °C -4.3 °C 1000.9 hPa SW 1.6 km/h 17.7 km/h 90 % 0 mm
06:45 -2.9 °C -4.5 °C 1000.6 hPa West 1.6 km/h 12.9 km/h 89 % 0 mm
06:46 -2.9 °C -4.4 °C 1001.2 hPa WNW 3.2 km/h 9.7 km/h 89 % 0 mm
06:50 -2.9 °C -4.5 °C 1000.6 hPa West 1.6 km/h 12.9 km/h 89 % 0 mm
06:55 -2.8 °C -4.6 °C 1000.6 hPa West 1.6 km/h 1.6 km/h 88 % 0 mm
07:00 -2.8 °C -4.6 °C 1000.6 hPa WSW 1.6 km/h 1.6 km/h 88 % 0 mm
07:01 -2.8 °C -4.4 °C 1001.6 hPa South 3.2 km/h 6.4 km/h 88 % 0 mm
07:13 -2.8 °C -4.6 °C 1000.6 hPa WSW 1.6 km/h   88 % 0 mm
07:18 -2.7 °C -4.4 °C 1000.6 hPa Calm   4.8 km/h 88 % 0 mm
07:23 -2.7 °C -4.4 °C 1000.6 hPa Calm   4.8 km/h 88 % 0 mm
07:25 -2.7 °C -4.4 °C 1000.6 hPa Calm     88 % 0 mm
07:28 -2.7 °C -4.4 °C 1000.6 hPa SW 4.8 km/h 6.4 km/h 88 % 0 mm
07:30 -2.7 °C -4.4 °C 1000.6 hPa SW 1.6 km/h 6.4 km/h 88 % 0 mm
07:35 -2.7 °C -4.4 °C 1000.6 hPa SW 1.6 km/h 6.4 km/h 88 % 0 mm
07:40 -2.7 °C -4.4 °C 1000.6 hPa SW 1.6 km/h 6.4 km/h 88 % 0 mm
07:45 -2.7 °C -4.5 °C 1000.6 hPa SW 1.6 km/h 6.4 km/h 87 % 0 mm
07:46 -2.6 °C -4.4 °C 1001.2 hPa Calm   8 km/h 88 % 0 mm
07:50 -2.7 °C -4.5 °C 1000.6 hPa SW 1.6 km/h 6.4 km/h 87 % 0 mm
07:55 -2.7 °C -4.5 °C 1000.6 hPa SW 1.6 km/h 6.4 km/h 87 % 0 mm
08:00 -2.6 °C -4.3 °C 1000.6 hPa Calm   11.3 km/h 88 % 0 mm
08:01 -2.3 °C -3.9 °C 1001.2 hPa Calm   6.4 km/h 88 % 0 mm
08:05 -2.6 °C -4.3 °C 1000.6 hPa Calm   11.3 km/h 88 % 0 mm
08:10 -2.6 °C -4.3 °C 1000.6 hPa Calm   11.3 km/h 88 % 0 mm
08:15 -2.3 °C -4 °C 1000.2 hPa Calm   8 km/h 88 % 0 mm
08:16 -2.1 °C -3.9 °C 1001.2 hPa ESE 1.6 km/h 4.8 km/h 88 % 0 mm
08:20 -2.3 °C -4 °C 1000.2 hPa Calm   8 km/h 88 % 0 mm
08:25 -2.3 °C -4 °C 1000.2 hPa Calm   8 km/h 88 % 0 mm
08:30 -2.1 °C -3.8 °C 1000.6 hPa SSW 1.6 km/h 8 km/h 88 % 0 mm
08:31 -2 °C -3.9 °C 1001.2 hPa SSE 1.6 km/h 4.8 km/h 87 % 0 mm
08:35 -2.1 °C -3.8 °C 1000.6 hPa SSW 1.6 km/h 8 km/h 88 % 0 mm
08:40 -2.1 °C -3.8 °C 1000.6 hPa SSW 1.6 km/h 8 km/h 88 % 0 mm
08:45 -2 °C -3.9 °C 1000.2 hPa SSW 1.6 km/h 8 km/h 87 % 0 mm
08:46 -1.9 °C -3.9 °C 1001.2 hPa SSE 6.4 km/h 9.7 km/h 86 % 0 mm
08:50 -2 °C -3.9 °C 1000.2 hPa SSW 1.6 km/h 8 km/h 87 % 0 mm
08:55 -2 °C -3.9 °C 1000.2 hPa SSW 1.6 km/h 8 km/h 87 % 0 mm
09:00 -1.9 °C -3.9 °C 1000.6 hPa SSW 1.6 km/h 11.3 km/h 86 % 0 mm
09:01 -1.7 °C -3.9 °C 1001.2 hPa South 3.2 km/h 3.2 km/h 86 % 0 mm
09:05 -1.9 °C -3.9 °C 1000.6 hPa SSW 1.6 km/h 11.3 km/h 86 % 0 mm
09:10 -1.9 °C -3.9 °C 1000.6 hPa SSW 1.6 km/h 11.3 km/h 86 % 0 mm
09:15 -1.7 °C -3.8 °C 1000.6 hPa Calm   6.4 km/h 86 % 0 mm
09:16 -1.4 °C -3.3 °C 1001.6 hPa Calm     86 % 0 mm
09:20 -1.7 °C -3.8 °C 1000.6 hPa Calm   6.4 km/h 86 % 0 mm
09:25 -1.7 °C -3.8 °C 1000.6 hPa Calm   6.4 km/h 86 % 0 mm
09:30 -1.4 °C -3.5 °C 1000.9 hPa Calm     86 % 0 mm
09:31 -1.2 °C -3.3 °C 1001.9 hPa Calm   3.2 km/h 86 % 0 mm
09:35 -1.4 °C -3.5 °C 1000.9 hPa Calm     86 % 0 mm
09:40 -1.4 °C -3.5 °C 1000.9 hPa Calm     86 % 0 mm
09:45 -1.2 °C -3.3 °C 1001.2 hPa Calm   1.6 km/h 86 % 0 mm
09:46 -1.1 °C -3.3 °C 1002.3 hPa ENE 4.8 km/h 4.8 km/h 86 % 0 mm
09:50 -1.2 °C -3.3 °C 1001.2 hPa Calm   1.6 km/h 86 % 0 mm
09:55 -1.2 °C -3.3 °C 1001.2 hPa Calm   1.6 km/h 86 % 0 mm
10:00 -1.1 °C -3.1 °C 1001.6 hPa Calm   4.8 km/h 86 % 0 mm
10:01 -1.1 °C -3.3 °C 1002.9 hPa NNW 1.6 km/h 4.8 km/h 86 % 0 mm
10:05 -1.1 °C -3.1 °C 1001.6 hPa Calm   4.8 km/h 86 % 0 mm
10:10 -1.1 °C -3.1 °C 1001.6 hPa Calm   4.8 km/h 86 % 0 mm
10:15 -1.1 °C -3.2 °C 1002.3 hPa NNE 1.6 km/h 11.3 km/h 86 % 0 mm
10:16 -1 °C -2.8 °C 1003.3 hPa Calm   8 km/h 87 % 0 mm
10:20 -1.1 °C -3.2 °C 1002.3 hPa NNE 1.6 km/h 11.3 km/h 86 % 0 mm
10:25 -1.1 °C -3.2 °C 1002.3 hPa NNE 1.6 km/h 11.3 km/h 86 % 0 mm
10:30 -0.9 °C -2.8 °C 1002.6 hPa North 1.6 km/h 11.3 km/h 87 % 0 mm
10:31 -1.1 °C -2.8 °C 1003.9 hPa NE 3.2 km/h 14.5 km/h 87 % 0 mm
10:35 -0.9 °C -2.8 °C 1002.6 hPa North 1.6 km/h 11.3 km/h 87 % 0 mm
10:40 -0.9 °C -2.8 °C 1002.6 hPa North 1.6 km/h 11.3 km/h 87 % 0 mm
10:45 -1.2 °C -3.1 °C 1002.9 hPa NE 4.8 km/h 19.3 km/h 87 % 0 mm
10:46 -1.3 °C -3.3 °C 1004.3 hPa North 6.4 km/h 17.7 km/h 87 % 0 mm
10:50 -1.2 °C -3.1 °C 1002.9 hPa NE 4.8 km/h 19.3 km/h 87 % 0 mm
10:55 -1.2 °C -3.1 °C 1002.9 hPa NE 4.8 km/h 19.3 km/h 87 % 0 mm
11:00 -1.3 °C -3.1 °C 1003.6 hPa NNW 6.4 km/h 20.9 km/h 88 % 0 mm
11:01 -1.3 °C -2.8 °C 1005 hPa NNE 4.8 km/h 14.5 km/h 88 % 0 mm
11:05 -1.3 °C -3.1 °C 1003.6 hPa NNW 6.4 km/h 20.9 km/h 88 % 0 mm
11:10 -1.3 °C -3.1 °C 1003.6 hPa NNW 6.4 km/h 20.9 km/h 88 % 0 mm
11:15 -1.3 °C -3.1 °C 1004.3 hPa NNE 6.4 km/h 19.3 km/h 88 % 0 mm
11:16 -1.3 °C -2.8 °C 1005.6 hPa NNW 1.6 km/h 14.5 km/h 89 % 0 mm
11:20 -1.3 °C -3.1 °C 1004.3 hPa NNE 6.4 km/h 19.3 km/h 88 % 0 mm
11:25 -1.3 °C -3.1 °C 1004.3 hPa NNE 6.4 km/h 19.3 km/h 88 % 0 mm
11:30 -1.3 °C -2.8 °C 1004.6 hPa North 4.8 km/h 16.1 km/h 89 % 0 mm
11:31 -1.2 °C -2.8 °C 1006 hPa North 1.6 km/h 19.3 km/h 89 % 0 mm
11:35 -1.3 °C -2.8 °C 1004.6 hPa North 4.8 km/h 16.1 km/h 89 % 0 mm
11:40 -1.3 °C -2.8 °C 1004.6 hPa North 4.8 km/h 16.1 km/h 89 % 0 mm
11:45 -1.2 °C -2.7 °C 1005.3 hPa North 6.4 km/h 20.9 km/h 89 % 0 mm
11:46 -0.9 °C -2.2 °C 1006.7 hPa NW 3.2 km/h 16.1 km/h 89 % 0 mm
11:50 -1.2 °C -2.7 °C 1005.3 hPa North 6.4 km/h 20.9 km/h 89 % 0 mm
11:55 -1.2 °C -2.7 °C 1005.3 hPa North 6.4 km/h 20.9 km/h 89 % 0 mm
12:00 -0.9 °C -2.6 °C 1005.6 hPa NNW 8 km/h 24.1 km/h 88 % 0 mm
12:01 -0.8 °C -2.8 °C 1007 hPa NNE 16.1 km/h 20.9 km/h 88 % 0.25 mm
12:05 -0.9 °C -2.6 °C 1005.6 hPa NNW 8 km/h 24.1 km/h 88 % 0 mm
12:10 -0.9 °C -2.6 °C 1005.6 hPa NNW 8 km/h 24.1 km/h 88 % 0 mm
12:15 -0.9 °C -2.6 °C 1006 hPa NNE 9.7 km/h 27.4 km/h 88 % 0 mm
12:17 -0.8 °C -2.8 °C 1007.3 hPa North 6.4 km/h 19.3 km/h 88 % 0.25 mm
12:20 -0.9 °C -2.6 °C 1006 hPa NNE 9.7 km/h 27.4 km/h 88 % 0 mm
12:25 -0.9 °C -2.6 °C 1006 hPa NNE 9.7 km/h 27.4 km/h 88 % 0 mm
12:30 -0.8 °C -2.3 °C 1006.7 hPa NNW 8 km/h 27.4 km/h 89 % 0 mm
12:32 -0.2 °C -2.2 °C 1008 hPa Calm   22.5 km/h 87 % 0.51 mm
12:35 -0.8 °C -2.3 °C 1006.7 hPa NNW 8 km/h 27.4 km/h 89 % 0 mm
12:40 -0.8 °C -2.3 °C 1006.7 hPa NNW 8 km/h 27.4 km/h 89 % 0 mm
12:45 -0.2 °C -2.1 °C 1007 hPa NNE 8 km/h 25.7 km/h 87 % 0 mm
12:47 -0.2 °C -2.2 °C 1008 hPa WNW 4.8 km/h 20.9 km/h 86 % 0.76 mm
12:50 -0.2 °C -2.1 °C 1007 hPa NNE 8 km/h 25.7 km/h 87 % 0 mm
12:55 -0.2 °C -2.1 °C 1007 hPa NNE 8 km/h 25.7 km/h 87 % 0 mm
13:00 -0.2 °C -2.3 °C 1007.3 hPa NNE 9.7 km/h 24.1 km/h 86 % 0 mm
13:02 0 °C -2.2 °C 1008.4 hPa NW 3.2 km/h 17.7 km/h 86 % 0.76 mm
13:05 -0.2 °C -2.3 °C 1007.3 hPa NNE 9.7 km/h 24.1 km/h 86 % 0 mm
13:10 -0.2 °C -2.3 °C 1007.3 hPa NNE 9.7 km/h 24.1 km/h 86 % 0 mm
13:15 0 °C -2.1 °C 1007.3 hPa North 8 km/h 19.3 km/h 86 % 0 mm
13:17 -0.2 °C -2.2 °C 1008.7 hPa WNW 8 km/h 17.7 km/h 87 % 0.76 mm
13:20 0 °C -2.1 °C 1007.3 hPa North 8 km/h 19.3 km/h 86 % 0 mm
13:25 0 °C -2.1 °C 1007.3 hPa North 8 km/h 19.3 km/h 86 % 0 mm
13:30 -0.2 °C -2.3 °C 1008 hPa NNW 9.7 km/h 22.5 km/h 86 % 0 mm
13:32 -0.4 °C -2.2 °C 1009 hPa NE 8 km/h 14.5 km/h 87 % 0.51 mm
13:35 -0.2 °C -2.3 °C 1008 hPa NNW 9.7 km/h 22.5 km/h 86 % 0 mm
13:40 -0.2 °C -2.3 °C 1008 hPa NNW 9.7 km/h 22.5 km/h 86 % 0 mm
13:45 -0.4 °C -2.3 °C 1008 hPa NNE 8 km/h 24.1 km/h 87 % 0 mm
13:47 -0.4 °C -1.7 °C 1009.4 hPa NW 11.3 km/h 16.1 km/h 89 % 0.25 mm
13:50 -0.4 °C -2.3 °C 1008 hPa NNE 8 km/h 24.1 km/h 87 % 0 mm
13:55 -0.4 °C -2.3 °C 1008 hPa NNE 8 km/h 24.1 km/h 87 % 0 mm
14:00 -0.4 °C -2 °C 1008.4 hPa NNW 8 km/h 20.9 km/h 89 % 0 mm
14:02 -0.3 °C -1.7 °C 1009.7 hPa NW 6.4 km/h 16.1 km/h 90 % 0 mm
14:05 -0.4 °C -2 °C 1008.4 hPa NNW 8 km/h 20.9 km/h 89 % 0 mm
14:10 -0.4 °C -2 °C 1008.4 hPa NNW 8 km/h 20.9 km/h 89 % 0 mm
14:15 -0.3 °C -1.7 °C 1008.7 hPa NW 8 km/h 17.7 km/h 90 % 0 mm
14:17 -0.1 °C -1.7 °C 1010 hPa NNW 6.4 km/h 29 km/h 90 % 0.25 mm
14:20 -0.3 °C -1.7 °C 1008.7 hPa NW 8 km/h 17.7 km/h 90 % 0 mm
14:25 -0.3 °C -1.7 °C 1008.7 hPa NW 8 km/h 17.7 km/h 90 % 0 mm
14:30 0 °C -1.3 °C 1009 hPa NNW 11.3 km/h 32.2 km/h 91 % 0 mm
14:35 0 °C -1.3 °C 1009 hPa NNW 11.3 km/h 32.2 km/h 91 % 0 mm
14:36 0.1 °C -1.1 °C 1010.4 hPa West 9.7 km/h 20.9 km/h 91 % 0.51 mm
14:40 0 °C -1.3 °C 1009 hPa NNW 11.3 km/h 32.2 km/h 91 % 0 mm
14:45 0.2 °C -1.1 °C 1009.4 hPa NNW 12.9 km/h 27.4 km/h 91 % 0 mm
14:47 0.2 °C -1.1 °C 1010.7 hPa WNW 14.5 km/h 29 km/h 90 % 0.51 mm
14:50 0.2 °C -1.1 °C 1009.4 hPa NNW 12.9 km/h 27.4 km/h 91 % 0 mm
14:55 0.2 °C -1.1 °C 1009.4 hPa NNW 12.9 km/h 27.4 km/h 91 % 0 mm
15:00 0.2 °C -1.3 °C 1009.7 hPa North 12.9 km/h 33.8 km/h 90 % 0 mm
15:02 0.4 °C -1.1 °C 1011.1 hPa NNW 24.1 km/h 27.4 km/h 89 % 0.51 mm
15:04 0.4 °C -1.1 °C 1010 hPa North 16.1 km/h 30.6 km/h 89 % 0.25 mm
15:05 0.2 °C -1.3 °C 1009.7 hPa North 12.9 km/h 33.8 km/h 90 % 0 mm
15:10 0.2 °C -1.3 °C 1009.7 hPa North 12.9 km/h 33.8 km/h 90 % 0 mm
15:15 0.4 °C -1.2 °C 1010 hPa NNW 12.9 km/h 30.6 km/h 89 % 0 mm
15:18 0.5 °C -1.1 °C 1011.4 hPa WNW 6.4 km/h 29 km/h 88 % 0.25 mm
15:20 0.4 °C -1.2 °C 1010 hPa NNW 12.9 km/h 30.6 km/h 89 % 0 mm
15:25 0.4 °C -1.2 °C 1010 hPa NNW 12.9 km/h 30.6 km/h 89 % 0 mm
15:30 0.5 °C -1.2 °C 1010.4 hPa NNW 14.5 km/h 37 km/h 88 % 0 mm
15:32 0.5 °C -1.1 °C 1012.1 hPa West 4.8 km/h 24.1 km/h 88 % 0 mm
15:35 0.5 °C -1.2 °C 1010.4 hPa NNW 14.5 km/h 37 km/h 88 % 0 mm
15:40 0.5 °C -1.2 °C 1010.4 hPa NNW 14.5 km/h 37 km/h 88 % 0 mm
15:45 0.5 °C -1.2 °C 1011.1 hPa NNW 11.3 km/h 37 km/h 88 % 0 mm
15:48 0.6 °C -1.1 °C 1012.4 hPa North 4.8 km/h 27.4 km/h 88 % 0.25 mm
15:50 0.5 °C -1.2 °C 1011.1 hPa NNW 11.3 km/h 37 km/h 88 % 0 mm
15:55 0.5 °C -1.2 °C 1011.1 hPa NNW 11.3 km/h 37 km/h 88 % 0 mm
16:00 0.6 °C -1.2 °C 1011.4 hPa NNW 12.9 km/h 30.6 km/h 88 % 0 mm
16:02 0.7 °C -1.1 °C 1012.8 hPa NNW 8 km/h 22.5 km/h 87 % 0.25 mm
16:05 0.6 °C -1.2 °C 1011.4 hPa NNW 12.9 km/h 30.6 km/h 88 % 0 mm
16:10 0.6 °C -1.2 °C 1011.4 hPa NNW 12.9 km/h 30.6 km/h 88 % 0 mm
16:15 0.7 °C -1.2 °C 1011.7 hPa NNW 11.3 km/h 33.8 km/h 87 % 0 mm
16:17 0.7 °C -1.1 °C 1013.1 hPa NNE 1.6 km/h 22.5 km/h 87 % 0.25 mm
16:20 0.7 °C -1.2 °C 1011.7 hPa NNW 11.3 km/h 33.8 km/h 87 % 0 mm
16:25 0.7 °C -1.2 °C 1011.7 hPa NNW 11.3 km/h 33.8 km/h 87 % 0 mm
16:30 0.7 °C -1.2 °C 1012.1 hPa NNW 11.3 km/h 30.6 km/h 87 % 0 mm
16:32 0.8 °C -1.1 °C 1013.8 hPa NE 25.7 km/h 25.7 km/h 86 % 0.25 mm
16:35 0.7 °C -1.2 °C 1012.1 hPa NNW 11.3 km/h 30.6 km/h 87 % 0 mm
16:40 0.7 °C -1.2 °C 1012.1 hPa NNW 11.3 km/h 30.6 km/h 87 % 0 mm
16:45 0.8 °C -1.3 °C 1012.4 hPa NNW 12.9 km/h 32.2 km/h 86 % 0 mm
16:47 0.7 °C -1.1 °C 1014.1 hPa NNW 16.1 km/h 29 km/h 86 % 0 mm
16:50 0.8 °C -1.3 °C 1012.4 hPa NNW 12.9 km/h 32.2 km/h 86 % 0 mm
16:55 0.8 °C -1.3 °C 1012.4 hPa NNW 12.9 km/h 32.2 km/h 86 % 0 mm
17:00 0.7 °C -1.3 °C 1013.1 hPa NNW 12.9 km/h 32.2 km/h 86 % 0 mm
17:02 0.6 °C -1.7 °C 1014.4 hPa NNW 4.8 km/h 24.1 km/h 86 % 0 mm
17:05 0.7 °C -1.3 °C 1013.1 hPa NNW 12.9 km/h 32.2 km/h 86 % 0 mm
17:10 0.7 °C -1.3 °C 1013.1 hPa NNW 12.9 km/h 32.2 km/h 86 % 0 mm
17:15 0.6 °C -1.4 °C 1013.4 hPa NNW 11.3 km/h 29 km/h 86 % 0 mm
17:17 0.5 °C -1.7 °C 1014.8 hPa NNW 8 km/h 27.4 km/h 86 % 0 mm
17:20 0.6 °C -1.4 °C 1013.4 hPa NNW 11.3 km/h 29 km/h 86 % 0 mm
17:25 0.6 °C -1.4 °C 1013.4 hPa NNW 11.3 km/h 29 km/h 86 % 0 mm
17:30 0.4 °C -1.8 °C 1013.8 hPa NNW 12.9 km/h 33.8 km/h 85 % 0 mm
17:32 0.3 °C -1.7 °C 1015.5 hPa NW 11.3 km/h 20.9 km/h 85 % 0 mm
17:35 0.4 °C -1.8 °C 1013.8 hPa NNW 12.9 km/h 33.8 km/h 85 % 0 mm
17:40 0.4 °C -1.8 °C 1013.8 hPa NNW 12.9 km/h 33.8 km/h 85 % 0 mm
17:45 0.3 °C -1.9 °C 1014.4 hPa NNW 12.9 km/h 30.6 km/h 85 % 0 mm
17:47 0.2 °C -2.2 °C 1015.8 hPa WSW 6.4 km/h 30.6 km/h 84 % 0 mm
17:50 0.3 °C -1.9 °C 1014.4 hPa NNW 12.9 km/h 30.6 km/h 85 % 0 mm
17:55 0.3 °C -1.9 °C 1014.4 hPa NNW 12.9 km/h 30.6 km/h 85 % 0 mm
18:00 0.2 °C -2.2 °C 1014.8 hPa NW 14.5 km/h 33.8 km/h 84 % 0 mm
18:02 0.1 °C -2.2 °C 1016.1 hPa WNW 16.1 km/h 25.7 km/h 83 % 0 mm
18:05 0.2 °C -2.2 °C 1014.8 hPa NW 14.5 km/h 33.8 km/h 84 % 0 mm
18:10 0.2 °C -2.2 °C 1014.8 hPa NW 14.5 km/h 33.8 km/h 84 % 0 mm
18:15 0.1 °C -2.4 °C 1015.1 hPa NNW 12.9 km/h 35.4 km/h 83 % 0 mm
18:17 0.1 °C -2.2 °C 1016.5 hPa NE 12.9 km/h 24.1 km/h 83 % 0 mm
18:20 0.1 °C -2.4 °C 1015.1 hPa NNW 12.9 km/h 35.4 km/h 83 % 0 mm
18:25 0.1 °C -2.4 °C 1015.1 hPa NNW 12.9 km/h 35.4 km/h 83 % 0 mm
18:30 0.1 °C -2.3 °C 1015.5 hPa NW 11.3 km/h 27.4 km/h 84 % 0 mm
18:32 -0.2 °C -2.8 °C 1016.8 hPa North 9.7 km/h 27.4 km/h 84 % 0 mm
18:35 0.1 °C -2.3 °C 1015.5 hPa NW 11.3 km/h 27.4 km/h 84 % 0 mm
18:40 0.1 °C -2.3 °C 1015.5 hPa NW 11.3 km/h 27.4 km/h 84 % 0 mm
18:45 -0.2 °C -2.6 °C 1015.8 hPa NNW 14.5 km/h 32.2 km/h 84 % 0 mm
18:48 -0.3 °C -2.8 °C 1017.2 hPa WNW 11.3 km/h 24.1 km/h 85 % 0 mm
18:50 -0.2 °C -2.6 °C 1015.8 hPa NNW 14.5 km/h 32.2 km/h 84 % 0 mm
18:55 -0.2 °C -2.6 °C 1015.8 hPa NNW 14.5 km/h 32.2 km/h 84 % 0 mm
19:00 -0.3 °C -2.6 °C 1016.1 hPa NNW 11.3 km/h 27.4 km/h 85 % 0 mm
19:03 -0.4 °C -2.8 °C 1017.5 hPa NW 12.9 km/h 25.7 km/h 85 % 0 mm
19:05 -0.3 °C -2.6 °C 1016.1 hPa NNW 11.3 km/h 27.4 km/h 85 % 0 mm
19:10 -0.3 °C -2.6 °C 1016.1 hPa NNW 11.3 km/h 27.4 km/h 85 % 0 mm
19:15 -0.4 °C -2.6 °C 1016.5 hPa NNW 11.3 km/h 27.4 km/h 85 % 0 mm
19:18 -0.4 °C -2.8 °C 1017.2 hPa WNW 4.8 km/h 22.5 km/h 85 % 0 mm
19:20 -0.4 °C -2.6 °C 1016.5 hPa NNW 11.3 km/h 27.4 km/h 85 % 0 mm
19:25 -0.4 °C -2.6 °C 1016.5 hPa NNW 11.3 km/h 27.4 km/h 85 % 0 mm
19:30 -0.4 °C -2.7 °C 1016.5 hPa NNW 11.3 km/h 30.6 km/h 85 % 0 mm
19:33 -0.4 °C -2.8 °C 1017.5 hPa NW 3.2 km/h 19.3 km/h 85 % 0 mm
19:35 -0.4 °C -2.7 °C 1016.5 hPa NNW 11.3 km/h 30.6 km/h 85 % 0 mm
19:40 -0.4 °C -2.7 °C 1016.5 hPa NNW 11.3 km/h 30.6 km/h 85 % 0 mm
19:45 -0.4 °C -2.7 °C 1016.8 hPa NNW 9.7 km/h 27.4 km/h 85 % 0 mm
19:48 -0.4 °C -2.8 °C 1018.2 hPa NW 6.4 km/h 24.1 km/h 84 % 0 mm
19:50 -0.4 °C -2.7 °C 1016.8 hPa NNW 9.7 km/h 27.4 km/h 85 % 0 mm
19:55 -0.4 °C -2.7 °C 1016.8 hPa NNW 9.7 km/h 27.4 km/h 85 % 0 mm
20:00 -0.4 °C -2.8 °C 1016.8 hPa NNW 11.3 km/h 27.4 km/h 84 % 0 mm
20:03 -0.3 °C -2.8 °C 1018.5 hPa NW 8 km/h 24.1 km/h 84 % 0 mm
20:05 -0.4 °C -2.8 °C 1016.8 hPa NNW 11.3 km/h 27.4 km/h 84 % 0 mm
20:10 -0.4 °C -2.8 °C 1016.8 hPa NNW 11.3 km/h 27.4 km/h 84 % 0 mm
20:15 -0.3 °C -2.7 °C 1017.5 hPa NNW 11.3 km/h 29 km/h 84 % 0 mm
20:18 -0.3 °C -2.8 °C 1018.5 hPa NW 8 km/h 17.7 km/h 84 % 0 mm
20:25 -0.3 °C -2.7 °C 1017.5 hPa NNW 11.3 km/h 29 km/h 84 % 0 mm
20:30 -0.3 °C -2.7 °C 1017.5 hPa NW 8 km/h 24.1 km/h 84 % 0 mm
20:33 -0.4 °C -2.8 °C 1018.8 hPa WSW 6.4 km/h 17.7 km/h 85 % 0 mm
20:35 -0.3 °C -2.7 °C 1017.5 hPa NW 8 km/h 24.1 km/h 84 % 0 mm
20:40 -0.3 °C -2.7 °C 1017.5 hPa NW 8 km/h 24.1 km/h 84 % 0 mm
20:45 -0.3 °C -2.6 °C 1017.8 hPa NW 8 km/h 27.4 km/h 85 % 0 mm
20:48 -0.4 °C -2.2 °C 1018.8 hPa NW 4.8 km/h 17.7 km/h 86 % 0 mm
20:50 -0.3 °C -2.6 °C 1017.8 hPa NW 8 km/h 27.4 km/h 85 % 0 mm
20:55 -0.3 °C -2.6 °C 1017.8 hPa NW 8 km/h 27.4 km/h 85 % 0 mm
21:00 -0.4 °C -2.4 °C 1017.8 hPa NNW 9.7 km/h 20.9 km/h 86 % 0 mm
21:03 -0.4 °C -2.2 °C 1018.8 hPa WNW 11.3 km/h 16.1 km/h 86 % 0 mm
21:05 -0.4 °C -2.4 °C 1017.8 hPa NNW 9.7 km/h 20.9 km/h 86 % 0 mm
21:10 -0.4 °C -2.4 °C 1017.8 hPa NNW 9.7 km/h 20.9 km/h 86 % 0 mm
21:15 -0.4 °C -2.4 °C 1018.2 hPa NNW 6.4 km/h 19.3 km/h 86 % 0 mm
21:18 -0.4 °C -2.2 °C 1019.2 hPa NW 4.8 km/h 16.1 km/h 86 % 0 mm
21:20 -0.4 °C -2.4 °C 1018.2 hPa NNW 6.4 km/h 19.3 km/h 86 % 0 mm
21:25 -0.4 °C -2.4 °C 1018.2 hPa NNW 6.4 km/h 19.3 km/h 86 % 0 mm
21:30 -0.4 °C -2.4 °C 1018.2 hPa NNW 4.8 km/h 19.3 km/h 86 % 0 mm
21:33 -0.4 °C -2.2 °C 1019.2 hPa West 9.7 km/h 27.4 km/h 86 % 0 mm
21:35 -0.4 °C -2.4 °C 1018.2 hPa NNW 4.8 km/h 19.3 km/h 86 % 0 mm
21:40 -0.4 °C -2.4 °C 1018.2 hPa NNW 4.8 km/h 19.3 km/h 86 % 0 mm
21:45 -0.4 °C -2.4 °C 1018.5 hPa NNW 6.4 km/h 29 km/h 86 % 0 mm
21:48 -0.6 °C -2.8 °C 1019.5 hPa NNW 14.5 km/h 24.1 km/h 86 % 0 mm
21:50 -0.4 °C -2.4 °C 1018.5 hPa NNW 6.4 km/h 29 km/h 86 % 0 mm
21:55 -0.4 °C -2.4 °C 1018.5 hPa NNW 6.4 km/h 29 km/h 86 % 0 mm
22:00 -0.6 °C -2.6 °C 1018.5 hPa NNW 11.3 km/h 27.4 km/h 86 % 0 mm
22:03 -0.7 °C -2.8 °C 1019.9 hPa NW 6.4 km/h 24.1 km/h 86 % 0 mm
22:05 -0.6 °C -2.6 °C 1018.5 hPa NNW 11.3 km/h 27.4 km/h 86 % 0 mm
22:10 -0.6 °C -2.6 °C 1018.5 hPa NNW 11.3 km/h 27.4 km/h 86 % 0 mm
22:15 -0.7 °C -2.7 °C 1018.8 hPa NNW 9.7 km/h 29 km/h 86 % 0 mm
22:18 -0.8 °C -2.8 °C 1020.2 hPa NW 9.7 km/h 20.9 km/h 86 % 0 mm
22:20 -0.7 °C -2.7 °C 1018.8 hPa NNW 9.7 km/h 29 km/h 86 % 0 mm
22:25 -0.7 °C -2.7 °C 1018.8 hPa NNW 9.7 km/h 29 km/h 86 % 0 mm
22:30 -0.8 °C -2.8 °C 1018.8 hPa NNW 8 km/h 24.1 km/h 86 % 0 mm
22:33 -0.8 °C -2.8 °C 1020.5 hPa NW 14.5 km/h 24.1 km/h 85 % 0 mm
22:35 -0.8 °C -2.8 °C 1018.8 hPa NNW 8 km/h 24.1 km/h 86 % 0 mm
22:40 -0.8 °C -2.8 °C 1018.8 hPa NNW 8 km/h 24.1 km/h 86 % 0 mm
22:45 -0.8 °C -3.1 °C 1019.2 hPa NNW 9.7 km/h 25.7 km/h 85 % 0 mm
22:48 -0.9 °C -3.3 °C 1020.2 hPa NW 8 km/h 19.3 km/h 85 % 0 mm
22:50 -0.8 °C -3.1 °C 1019.2 hPa NNW 9.7 km/h 25.7 km/h 85 % 0 mm
22:55 -0.8 °C -3.1 °C 1019.2 hPa NNW 9.7 km/h 25.7 km/h 85 % 0 mm
23:00 -0.9 °C -3.1 °C 1019.2 hPa NW 11.3 km/h 29 km/h 85 % 0 mm
23:03 -0.9 °C -3.3 °C 1020.5 hPa NW 3.2 km/h 19.3 km/h 85 % 0 mm
23:05 -0.9 °C -3.1 °C 1019.2 hPa NW 11.3 km/h 29 km/h 85 % 0 mm
23:10 -0.9 °C -3.1 °C 1019.2 hPa NW 11.3 km/h 29 km/h 85 % 0 mm
23:15 -1 °C -3.2 °C 1019.5 hPa NNW 9.7 km/h 22.5 km/h 85 % 0 mm
23:18 -1 °C -3.3 °C 1020.5 hPa NW 3.2 km/h 19.3 km/h 85 % 0 mm
23:20 -1 °C -3.2 °C 1019.5 hPa NNW 9.7 km/h 22.5 km/h 85 % 0 mm
23:25 -1 °C -3.2 °C 1019.5 hPa NNW 9.7 km/h 22.5 km/h 85 % 0 mm
23:30 -1 °C -3.2 °C 1019.5 hPa NW 8 km/h 24.1 km/h 85 % 0 mm
23:33 -1.1 °C -3.3 °C 1020.5 hPa NW 16.1 km/h 24.1 km/h 85 % 0 mm
23:35 -1 °C -3.2 °C 1019.5 hPa NW 8 km/h 24.1 km/h 85 % 0 mm
23:40 -1 °C -3.2 °C 1019.5 hPa NW 8 km/h 24.1 km/h 85 % 0 mm
23:45 -1.1 °C -3.3 °C 1019.5 hPa NW 9.7 km/h 24.1 km/h 85 % 0 mm
23:48 -1.3 °C -3.3 °C 1020.9 hPa NW 8 km/h 20.9 km/h 85 % 0 mm
23:50 -1.1 °C -3.3 °C 1019.5 hPa NW 9.7 km/h 24.1 km/h 85 % 0 mm
23:55 -1.1 °C -3.3 °C 1019.5 hPa NW 9.7 km/h 24.1 km/h 85 % 0 mm
Des Moines Weather and Climate
Compliments of Weather Underground - 4.5 mb

Script developed by  Jim McMurry - jmcmurry@mwt.net Adapted for the template by  Wim van der Kuil - Leuven-Template.eu

You find our weather info also at:

Weather Underground

Equipment we use:

Weather-station
Davis VP2 Plus

Weather-program
Davis Weatherlink.Com

Weather-server
iMac (Retina 4K, 21.5-inch, Late 2015)

Provider
Hostmonster.com

Davis VP2 Plus

Davis Weatherlink.Com

iMac (Retina 4K, 21.5-inch, Late 2015)

Hostmonster.com